Time;durP1;ratioP1;P1;durP2;ratioP2;P2;SDS_P1;SDS_P2;PMS_P1;PMS_P2;Temp;Humidity;BMP_temperature;BMP_pressure;BME280_temperature;BME280_humidity;BME280_pressure;Samples;Min_cycle;Max_cycle;Signal;HPM_P1;HPM_P2
2022/11/25 05:13:01;;;;;;;;;;;;;;;10.86;70.06;96925.91;4258275;27;10312;-66
2022/11/25 05:15:05;;;;;;;;;;;;;;;11.16;69.20;96925.72;4263060;27;5642;-66
2022/11/25 05:17:10;;;;;;;;;;;;;;;11.38;68.97;96919.34;4234211;27;5537;-66
2022/11/25 05:19:13;;;;;;;;;;;;;;;11.54;68.44;96910.28;4236601;27;5610;-66
2022/11/25 05:21:16;;;;;;;;;;;;;;;11.68;68.38;96913.81;4247377;27;5684;-67
2022/11/25 05:23:19;;;;;;;;;;;;;;;11.79;67.87;96916.75;4246947;27;5683;-67
2022/11/25 05:25:23;;;;;;;;;;;;;;;11.87;67.82;96905.16;4246332;27;5590;-67
2022/11/25 05:27:27;;;;;;;;;;;;;;;11.90;67.24;96908.25;4247512;27;5803;-67
2022/11/25 05:29:31;;;;;;;;;;;;;;;11.94;67.08;96898.06;4242291;27;5590;-67
2022/11/25 05:31:33;;;;;;;;;;;;;;;12.00;67.11;96897.25;4252218;27;5595;-67
2022/11/25 05:33:37;;;;;;;;;;;;;;;12.02;66.82;96905.84;4254746;27;5578;-67
2022/11/25 05:35:40;;;;;;;;;;;;;;;12.04;66.73;96913.56;4261330;27;6313;-67
2022/11/25 05:37:43;;;;;;;;;;;;;;;12.07;66.75;96921.94;4236874;27;5708;-67
2022/11/25 05:39:46;;;;;;;;;;;;;;;12.09;66.55;96913.78;4242809;27;5628;-67
2022/11/25 05:41:49;;;;;;;;;;;;;;;12.12;66.23;96908.91;4237025;27;5632;-67
2022/11/25 05:43:52;;;;;;;;;;;;;;;12.11;66.19;96907.25;4243573;27;5723;-67
2022/11/25 05:45:56;;;;;;;;;;;;;;;12.11;65.90;96909.91;4243976;27;5665;-67
2022/11/25 05:47:59;;;;;;;;;;;;;;;12.09;65.38;96904.00;4238757;27;5609;-67
2022/11/25 05:50:01;;;;;;;;;;;;;;;12.07;65.57;96924.59;4246801;27;5718;-65
2022/11/25 05:52:04;;;;;;;;;;;;;;;12.09;65.41;96933.16;4242383;27;5622;-66
2022/11/25 05:54:07;;;;;;;;;;;;;;;12.11;65.30;96925.81;4241426;27;5152;-66
2022/11/25 05:56:10;;;;;;;;;;;;;;;12.15;64.88;96942.97;4240825;27;5606;-66
2022/11/25 05:58:13;;;;;;;;;;;;;;;12.17;64.80;96948.06;4235892;27;5620;-66
2022/11/25 06:00:16;;;;;;;;;;;;;;;12.16;64.52;96946.44;4240312;27;5760;-67
2022/11/25 06:02:28;;;;;;;;;;;;;;;12.15;64.27;96952.75;4241417;27;5744;-67
2022/11/25 06:04:31;;;;;;;;;;;;;;;12.16;64.27;96949.09;4240584;27;5740;-66
2022/11/25 06:06:33;;;;;;;;;;;;;;;12.15;63.89;96956.22;4243280;27;5785;-66
2022/11/25 06:08:37;;;;;;;;;;;;;;;12.15;63.68;96952.75;4241236;27;5692;-66
2022/11/25 06:10:40;;;;;;;;;;;;;;;12.16;63.84;96955.19;4245928;27;5088;-66
2022/11/25 06:12:43;;;;;;;;;;;;;;;12.17;63.48;96948.88;4237349;27;5657;-66
2022/11/25 06:14:46;;;;;;;;;;;;;;;12.17;63.53;96950.72;4231568;28;5700;-66
2022/11/25 06:16:48;;;;;;;;;;;;;;;12.16;63.30;96955.19;4228665;28;5590;-66
2022/11/25 06:18:53;;;;;;;;;;;;;;;12.16;63.10;96955.19;4231489;27;5701;-66
2022/11/25 06:20:57;;;;;;;;;;;;;;;12.17;62.75;96956.00;4229371;28;5100;-66
2022/11/25 06:23:00;;;;;;;;;;;;;;;12.15;62.64;96966.81;4225141;28;5614;-67
2022/11/25 06:25:03;;;;;;;;;;;;;;;12.15;62.40;96958.88;4230548;28;5743;-67
2022/11/25 06:27:06;;;;;;;;;;;;;;;12.17;62.53;96958.66;4209556;28;5621;-68
2022/11/25 06:29:09;;;;;;;;;;;;;;;12.17;62.44;96961.31;4233989;27;5631;-67
2022/11/25 06:31:15;;;;;;;;;;;;;;;12.15;62.44;96966.81;4225522;27;5161;-68
2022/11/25 06:33:17;;;;;;;;;;;;;;;12.17;61.95;96977.22;4235869;27;6210;-67
2022/11/25 06:35:25;;;;;;;;;;;;;;;12.14;62.09;96973.13;4210584;28;5803;-68
2022/11/25 06:37:28;;;;;;;;;;;;;;;12.12;62.09;96969.88;4230385;27;5677;-67
2022/11/25 06:39:31;;;;;;;;;;;;;;;12.16;61.58;96981.69;4229723;28;5605;-68
2022/11/25 06:41:34;;;;;;;;;;;;;;;12.13;61.58;96982.09;4225584;28;5692;-68
2022/11/25 06:43:37;;;;;;;;;;;;;;;12.14;61.65;96978.44;4234305;28;5712;-67
2022/11/25 06:45:40;;;;;;;;;;;;;;;12.16;61.39;96988.84;4242781;27;5586;-67
2022/11/25 06:47:43;;;;;;;;;;;;;;;12.15;61.27;96995.97;4235708;27;5583;-68
2022/11/25 06:49:46;;;;;;;;;;;;;;;12.13;61.26;96992.72;4238211;27;5823;-68
2022/11/25 06:51:51;;;;;;;;;;;;;;;12.17;61.31;96996.59;4218761;28;5834;-73
2022/11/25 06:53:56;;;;;;;;;;;;;;;12.17;61.24;96999.22;4219330;28;5712;-67
2022/11/25 06:56:13;;;;;;;;;;;;;;;12.19;60.94;96996.38;4227424;28;5734;-67
2022/11/25 06:58:16;;;;;;;;;;;;;;;12.19;61.10;97010.44;4201181;28;5669;-69
2022/11/25 07:00:37;;;;;;;;;;;;;;;12.21;60.89;97004.94;4219217;28;5621;-67
2022/11/25 07:02:39;;;;;;;;;;;;;;;12.24;60.78;97004.56;4218823;28;5601;-67
2022/11/25 07:04:50;;;;;;;;;;;;;;;12.24;60.66;97008.03;4219216;28;5728;-67
2022/11/25 07:06:54;;;;;;;;;;;;;;;12.24;60.63;97002.75;4217989;28;5849;-67
2022/11/25 07:08:59;;;;;;;;;;;;;;;12.25;60.28;97011.50;4220037;27;5715;-68
2022/11/25 07:11:04;;;;;;;;;;;;;;;12.27;60.29;97017.44;4230927;28;5625;-67
2022/11/25 07:13:07;;;;;;;;;;;;;;;12.27;60.35;97022.72;4219762;28;5673;-67
2022/11/25 07:15:11;;;;;;;;;;;;;;;12.29;60.24;97025.19;4221758;28;5714;-67
2022/11/25 07:17:14;;;;;;;;;;;;;;;12.31;60.22;97017.84;4221904;28;5975;-67
2022/11/25 07:19:18;;;;;;;;;;;;;;;12.34;59.85;97025.38;4225840;28;5747;-67
2022/11/25 07:21:23;;;;;;;;;;;;;;;12.34;59.75;97015.59;4234657;28;5734;-68
2022/11/25 07:23:27;;;;;;;;;;;;;;;12.35;59.83;97021.75;4223018;28;5720;-68
2022/11/25 07:25:30;;;;;;;;;;;;;;;12.37;59.84;97017.88;4231417;28;5589;-68
2022/11/25 07:27:33;;;;;;;;;;;;;;;12.39;59.49;97012.38;4223406;28;5609;-68
2022/11/25 07:29:36;;;;;;;;;;;;;;;12.41;59.46;97007.69;4233016;28;5613;-68
2022/11/25 07:31:59;;;;;;;;;;;;;;;12.41;59.48;97019.09;4225645;28;5778;-68
2022/11/25 07:34:03;;;;;;;;;;;;;;;12.41;59.17;97012.97;4217583;28;5804;-68
2022/11/25 07:36:08;;;;;;;;;;;;;;;12.41;59.18;97012.97;4226442;28;5975;-68
2022/11/25 07:38:12;;;;;;;;;;;;;;;12.42;58.87;97014.63;4222984;28;5835;-68
2022/11/25 07:40:16;;;;;;;;;;;;;;;12.41;58.61;97018.28;4226809;28;5616;-68
2022/11/25 07:42:19;;;;;;;;;;;;;;;12.40;58.65;97024.59;4230536;28;5634;-68
2022/11/25 07:44:22;;;;;;;;;;;;;;;12.41;58.72;97023.59;4234487;28;5602;-69
2022/11/25 07:46:26;;;;;;;;;;;;;;;12.43;58.52;97029.50;4221796;28;5711;-69
2022/11/25 07:48:30;;;;;;;;;;;;;;;12.45;58.32;97030.13;4236688;27;5656;-66
2022/11/25 07:50:33;;;;;;;;;;;;;;;12.44;58.14;97033.78;4235101;28;5598;-66
2022/11/25 07:52:37;;;;;;;;;;;;;;;12.45;57.95;97041.53;4228622;27;5743;-66
2022/11/25 07:54:40;;;;;;;;;;;;;;;12.46;57.93;97040.56;4227116;27;6448;-68
2022/11/25 07:56:45;;;;;;;;;;;;;;;12.49;57.89;97050.75;4231135;28;5502;-68
2022/11/25 07:58:48;;;;;;;;;;;;;;;12.51;58.07;97047.91;4234938;28;5630;-68
2022/11/25 08:00:51;;;;;;;;;;;;;;;12.53;57.50;97045.84;4216243;28;5613;-68
2022/11/25 08:02:53;;;;;;;;;;;;;;;12.56;57.55;97041.97;4234755;28;5714;-68
2022/11/25 08:04:56;;;;;;;;;;;;;;;12.56;57.43;97040.16;4234065;28;5613;-68
2022/11/25 08:06:59;;;;;;;;;;;;;;;12.56;57.30;97040.16;4226840;28;5633;-68
2022/11/25 08:09:02;;;;;;;;;;;;;;;12.58;57.19;97040.78;4220564;27;6380;-68
2022/11/25 08:11:06;;;;;;;;;;;;;;;12.58;57.21;97043.44;4224072;28;5608;-68
2022/11/25 08:13:10;;;;;;;;;;;;;;;12.61;57.11;97053.66;4225772;28;5602;-68
2022/11/25 08:15:15;;;;;;;;;;;;;;;12.60;57.10;97065.28;4219709;28;5790;-68
2022/11/25 08:17:18;;;;;;;;;;;;;;;12.62;56.93;97063.22;4229033;28;7251;-67
2022/11/25 08:19:21;;;;;;;;;;;;;;;12.63;57.18;97062.22;4221847;28;5760;-68
2022/11/25 08:21:31;;;;;;;;;;;;;;;12.66;56.95;97067.13;4221354;28;5510;-68
2022/11/25 08:23:34;;;;;;;;;;;;;;;12.68;56.76;97074.88;4240235;27;5701;-68
2022/11/25 08:25:39;;;;;;;;;;;;;;;12.68;56.93;97075.69;4219836;28;5768;-66
2022/11/25 08:27:47;;;;;;;;;;;;;;;12.71;56.92;97083.25;4233908;28;5594;-68
2022/11/25 08:29:58;;;;;;;;;;;;;;;12.72;56.84;97090.19;4226901;28;5606;-67
2022/11/25 08:32:01;;;;;;;;;;;;;;;12.73;56.68;97096.31;4232655;28;5709;-67
2022/11/25 08:34:17;;;;;;;;;;;;;;;12.73;56.60;97094.50;4217542;28;5608;-67
2022/11/25 08:36:22;;;;;;;;;;;;;;;12.73;56.49;97097.16;4219742;28;5747;-68
2022/11/25 08:38:25;;;;;;;;;;;;;;;12.75;56.71;97102.25;4222102;28;5594;-67
2022/11/25 08:40:28;;;;;;;;;;;;;;;12.76;56.61;97104.69;4228082;28;5606;-68
2022/11/25 08:42:31;;;;;;;;;;;;;;;12.79;56.30;97114.09;4234507;28;5594;-67
2022/11/25 08:44:34;;;;;;;;;;;;;;;12.81;56.17;97117.38;4234548;28;5605;-68
2022/11/25 08:46:38;;;;;;;;;;;;;;;12.80;56.10;97116.56;4225951;28;5587;-67
2022/11/25 08:48:42;;;;;;;;;;;;;;;12.82;56.33;97124.31;4233745;28;5701;-67
2022/11/25 08:50:47;;;;;;;;;;;;;;;12.81;56.17;97128.81;4228116;28;5612;-68
2022/11/25 08:52:50;;;;;;;;;;;;;;;12.81;55.92;97131.47;4217678;28;5656;-68
2022/11/25 08:54:53;;;;;;;;;;;;;;;12.85;56.21;97139.00;4225632;28;5605;-67
2022/11/25 08:56:56;;;;;;;;;;;;;;;12.83;56.28;97137.38;4228123;28;6271;-67
2022/11/25 08:59:01;;;;;;;;;;;;;;;12.84;55.99;97151.47;4215932;28;5605;-68
2022/11/25 09:01:05;;;;;;;;;;;;;;;12.83;55.94;97152.47;4225298;28;5597;-67
2022/11/25 09:03:10;;;;;;;;;;;;;;;12.82;56.03;97156.97;4227702;28;5691;-67
2022/11/25 09:05:15;;;;;;;;;;;;;;;12.81;55.98;97160.66;4234403;28;5680;-68
2022/11/25 09:07:18;;;;;;;;;;;;;;;12.82;56.21;97162.28;4225779;28;5673;-68
2022/11/25 09:09:21;;;;;;;;;;;;;;;12.83;56.10;97158.59;4234365;28;5705;-67
2022/11/25 09:11:25;;;;;;;;;;;;;;;12.85;56.13;97158.41;4229361;28;5620;-67
2022/11/25 09:13:28;;;;;;;;;;;;;;;12.87;55.98;97166.16;4217227;28;5692;-67
2022/11/25 09:15:31;;;;;;;;;;;;;;;12.89;56.35;97166.78;4217399;28;5816;-68
2022/11/25 09:17:36;;;;;;;;;;;;;;;12.89;56.09;97166.78;4231336;28;5096;-67
2022/11/25 09:19:40;;;;;;;;;;;;;;;12.90;56.12;97168.41;4233504;28;5693;-67
2022/11/25 09:21:43;;;;;;;;;;;;;;;12.90;56.28;97157.81;4233902;28;5799;-67
2022/11/25 09:23:49;;;;;;;;;;;;;;;12.89;56.18;97162.28;4226478;28;5641;-67
2022/11/25 09:25:53;;;;;;;;;;;;;;;12.87;56.23;97163.50;4217401;28;5730;-67
2022/11/25 09:27:58;;;;;;;;;;;;;;;12.87;56.27;97163.50;4234376;28;5090;-68
2022/11/25 09:30:00;;;;;;;;;;;;;;;12.89;56.22;97158.81;4234447;28;5606;-67
2022/11/25 09:32:04;;;;;;;;;;;;;;;12.89;56.47;97150.84;4232296;28;5602;-68
2022/11/25 09:34:11;;;;;;;;;;;;;;;12.89;56.20;97150.84;4219528;28;5593;-67
2022/11/25 09:36:17;;;;;;;;;;;;;;;12.86;56.39;97153.91;4234369;28;5594;-68
2022/11/25 09:38:20;;;;;;;;;;;;;;;12.87;56.51;97143.09;4230076;28;5613;-67
2022/11/25 09:40:32;;;;;;;;;;;;;;;12.91;56.38;97148.81;4229878;28;5605;-67
2022/11/25 09:47:47;;;;;;;;;;;;;;;12.86;56.48;97127.38;4227482;28;5894;-67
2022/11/25 09:50:08;;;;;;;;;;;;;;;12.87;56.59;97126.38;4229387;28;6905;-68
2022/11/25 09:52:22;;;;;;;;;;;;;;;12.86;56.45;97122.06;4237340;28;5693;-68
2022/11/25 09:54:32;;;;;;;;;;;;;;;12.83;56.55;97121.47;4232450;28;5629;-68
2022/11/25 09:56:41;;;;;;;;;;;;;;;12.82;56.64;97125.13;4219923;28;5617;-67
2022/11/25 09:58:58;;;;;;;;;;;;;;;12.76;56.78;97119.78;4237092;28;5617;-67
2022/11/25 10:01:05;;;;;;;;;;;;;;;12.73;56.72;97110.41;4220873;28;6456;-67
2022/11/25 10:03:16;;;;;;;;;;;;;;;12.70;56.56;97105.50;4228159;28;5708;-67
2022/11/25 10:05:23;;;;;;;;;;;;;;;12.72;56.95;97107.97;4228344;28;5617;-67
2022/11/25 10:07:35;;;;;;;;;;;;;;;12.73;56.89;97110.41;4236965;28;5112;-67
2022/11/25 10:09:37;;;;;;;;;;;;;;;12.75;56.60;97111.03;4237062;28;5590;-68
2022/11/25 10:11:50;;;;;;;;;;;;;;;12.77;56.83;97122.25;4221145;28;5700;-68
2022/11/25 10:13:58;;;;;;;;;;;;;;;12.78;57.06;97121.22;4219943;28;5625;-68
2022/11/25 10:16:05;;;;;;;;;;;;;;;12.79;56.61;97133.47;4228275;28;5632;-68
2022/11/25 10:18:17;;;;;;;;;;;;;;;12.82;56.94;97140.25;4222041;28;5794;-68
2022/11/25 10:20:22;;;;;;;;;;;;;;;12.86;57.01;97136.16;4232995;28;5692;-68
2022/11/25 10:22:29;;;;;;;;;;;;;;;12.89;56.85;97125.13;4233009;28;5598;-68
2022/11/25 10:24:34;;;;;;;;;;;;;;;12.91;56.70;97122.28;4230903;28;5794;-68
2022/11/25 10:26:45;;;;;;;;;;;;;;;12.91;56.63;97122.28;4226995;28;5594;-69
2022/11/25 10:28:55;;;;;;;;;;;;;;;12.88;57.00;97117.38;4236710;28;5629;-68
2022/11/25 10:31:02;;;;;;;;;;;;;;;12.90;56.83;97128.59;4227900;28;5700;-68
2022/11/25 10:33:14;;;;;;;;;;;;;;;12.91;56.64;97123.13;4236404;28;5578;-68
2022/11/25 10:35:29;;;;;;;;;;;;;;;12.92;56.98;97134.56;4236669;28;5610;-66
2022/11/25 10:37:40;;;;;;;;;;;;;;;12.94;56.67;97132.53;4227893;28;5925;-66
2022/11/25 10:39:43;;;;;;;;;;;;;;;12.98;56.79;97133.75;4236741;28;5605;-66
2022/11/25 10:41:50;;;;;;;;;;;;;;;12.98;56.89;97123.94;4236107;28;5680;-66
2022/11/25 10:43:53;;;;;;;;;;;;;;;12.98;56.61;97123.94;4226918;28;6575;-67
2022/11/25 10:46:05;;;;;;;;;;;;;;;12.99;56.72;97128.22;4220444;27;5617;-67
2022/11/25 10:48:23;;;;;;;;;;;;;;;13.01;56.52;97125.38;4253414;27;5587;-66
2022/11/25 10:50:33;;;;;;;;;;;;;;;13.01;56.89;97126.19;4253659;27;5730;-67
2022/11/25 10:52:44;;;;;;;;;;;;;;;13.06;56.68;97126.44;4240784;27;5680;-67
2022/11/25 10:54:56;;;;;;;;;;;;;;;13.10;56.51;97124.19;4236206;27;5678;-67
2022/11/25 10:57:00;;;;;;;;;;;;;;;13.13;56.79;97127.25;4220023;28;5695;-67
2022/11/25 10:59:12;;;;;;;;;;;;;;;13.16;56.44;97131.34;4226116;28;5617;-67
2022/11/25 11:01:24;;;;;;;;;;;;;;;13.18;56.41;97123.19;4219098;28;6310;-67
2022/11/25 11:03:27;;;;;;;;;;;;;;;13.18;56.50;97126.66;4223836;28;5598;-67
2022/11/25 11:05:30;;;;;;;;;;;;;;;13.19;56.39;97128.31;4236044;28;5738;-67
2022/11/25 11:07:36;;;;;;;;;;;;;;;13.17;56.42;97130.34;4236027;28;5696;-66
2022/11/25 11:09:41;;;;;;;;;;;;;;;13.18;56.46;97139.13;4220912;28;5621;-67
2022/11/25 11:11:48;;;;;;;;;;;;;;;13.18;56.52;97134.63;4234277;28;5624;-67
2022/11/25 11:14:11;;;;;;;;;;;;;;;13.20;56.32;97122.00;4235808;28;5700;-67
2022/11/25 11:16:30;;;;;;;;;;;;;;;13.25;56.38;97134.66;4222078;28;5594;-67
2022/11/25 11:18:41;;;;;;;;;;;;;;;13.29;56.42;97135.91;4235677;28;5621;-67
2022/11/25 11:20:46;;;;;;;;;;;;;;;13.29;56.38;97142.03;4219681;28;5608;-67
2022/11/25 11:22:57;;;;;;;;;;;;;;;13.29;56.15;97139.38;4235399;28;5614;-67
2022/11/25 11:25:08;;;;;;;;;;;;;;;13.31;56.05;97149.78;4227103;28;5691;-67
2022/11/25 11:27:19;;;;;;;;;;;;;;;13.30;56.40;97146.31;4235633;28;5693;-67
2022/11/25 11:29:22;;;;;;;;;;;;;;;13.29;56.22;97151.84;4235653;28;5843;-67
2022/11/25 11:31:28;;;;;;;;;;;;;;;13.28;56.33;97147.53;4222147;28;5620;-67
2022/11/25 11:33:37;;;;;;;;;;;;;;;13.31;56.37;97150.59;4218427;28;5715;-67
2022/11/25 11:35:53;;;;;;;;;;;;;;;13.32;56.20;97146.94;4225121;28;5602;-67
2022/11/25 11:38:01;;;;;;;;;;;;;;;13.34;56.13;97149.38;4226972;28;5632;-67
2022/11/25 11:40:36;;;;;;;;;;;;;;;13.32;56.07;97146.94;4227069;28;5609;-67
2022/11/25 11:42:47;;;;;;;;;;;;;;;13.35;55.96;97149.16;4235553;28;5690;-67
2022/11/25 11:45:05;;;;;;;;;;;;;;;13.37;56.21;97143.69;4227134;28;5698;-67
2022/11/25 11:47:20;;;;;;;;;;;;;;;13.40;56.17;97149.41;4218630;28;5620;-68
2022/11/25 11:49:44;;;;;;;;;;;;;;;13.43;55.80;97152.66;4222608;28;5808;-68
2022/11/25 11:51:53;;;;;;;;;;;;;;;13.43;55.92;97150.00;4218960;28;5695;-68
2022/11/25 11:54:06;;;;;;;;;;;;;;;13.45;55.83;97155.94;4227563;28;5705;-68
2022/11/25 11:56:18;;;;;;;;;;;;;;;13.46;55.93;97152.25;4235298;28;5610;-68
2022/11/25 11:58:51;;;;;;;;;;;;;;;13.46;56.03;97162.88;4235333;28;5590;-68
2022/11/25 12:01:04;;;;;;;;;;;;;;;13.45;55.62;97164.72;4234916;28;5722;-68
2022/11/25 12:03:13;;;;;;;;;;;;;;;13.44;55.88;97164.91;4235144;28;5610;-68
2022/11/25 12:05:20;;;;;;;;;;;;;;;13.44;55.69;97160.44;4235171;28;5610;-68
2022/11/25 12:07:30;;;;;;;;;;;;;;;13.46;55.86;97163.69;4235170;28;5618;-68
2022/11/25 12:09:39;;;;;;;;;;;;;;;13.47;55.78;97169.81;4229341;28;5126;-68
2022/11/25 12:11:48;;;;;;;;;;;;;;;13.47;55.74;97169.81;4217492;28;5696;-67
2022/11/25 12:13:58;;;;;;;;;;;;;;;13.47;55.61;97175.94;4234911;28;5801;-68
2022/11/25 12:16:09;;;;;;;;;;;;;;;13.49;55.57;97173.13;4218125;28;5871;-68
2022/11/25 12:18:32;;;;;;;;;;;;;;;13.49;55.71;97170.47;4228998;28;6404;-68
2022/11/25 12:20:43;;;;;;;;;;;;;;;13.49;55.83;97173.94;4235146;28;6448;-68
2022/11/25 12:22:53;;;;;;;;;;;;;;;13.48;55.78;97174.09;4227573;28;5604;-68
2022/11/25 12:25:03;;;;;;;;;;;;;;;13.48;55.60;97177.63;4218706;28;5684;-68
2022/11/25 12:27:12;;;;;;;;;;;;;;;13.49;55.55;97184.56;4224426;28;5613;-68
2022/11/25 12:29:25;;;;;;;;;;;;;;;13.51;55.50;97187.00;4229502;28;6444;-68
2022/11/25 12:31:32;;;;;;;;;;;;;;;13.49;55.40;97179.25;4229407;28;5608;-67
2022/11/25 12:33:53;;;;;;;;;;;;;;;13.49;55.37;97176.59;4223541;28;5606;-67
2022/11/25 12:36:03;;;;;;;;;;;;;;;13.50;55.58;97174.75;4225709;28;5858;-68
2022/11/25 12:38:19;;;;;;;;;;;;;;;13.49;55.38;97173.13;4217907;28;5732;-68
2022/11/25 12:40:29;;;;;;;;;;;;;;;13.47;55.35;97180.44;4243261;27;5708;-68
2022/11/25 12:42:37;;;;;;;;;;;;;;;13.47;55.48;97183.09;4234522;27;5086;-67
2022/11/25 12:44:50;;;;;;;;;;;;;;;13.49;55.28;97194.38;4238190;27;5681;-67
2022/11/25 12:46:55;;;;;;;;;;;;;;;13.51;55.45;97189.66;4217668;28;5680;-67
2022/11/25 12:49:01;;;;;;;;;;;;;;;13.53;55.25;97191.09;4217607;28;5676;-67
2022/11/25 12:51:16;;;;;;;;;;;;;;;13.56;55.46;97189.88;4217686;28;5661;-68
2022/11/25 12:53:27;;;;;;;;;;;;;;;13.58;55.21;97193.13;4234266;27;5779;-68
2022/11/25 12:55:31;;;;;;;;;;;;;;;13.59;55.21;97194.75;4228017;27;5583;-68
2022/11/25 12:58:01;;;;;;;;;;;;;;;13.59;55.53;97198.28;4234275;27;5791;-68
2022/11/25 13:00:13;;;;;;;;;;;;;;;13.58;55.30;97204.56;4231334;27;5690;-68
2022/11/25 13:02:55;;;;;;;;;;;;;;;13.59;55.45;97202.72;4250847;27;5583;-68
2022/11/25 13:05:25;;;;;;;;;;;;;;;13.61;55.48;97203.38;4251347;27;5737;-68
2022/11/25 13:07:54;;;;;;;;;;;;;;;13.62;55.09;97207.66;4251524;27;5591;-68
2022/11/25 13:10:20;;;;;;;;;;;;;;;13.63;55.13;97210.13;4218888;28;5635;-68
2022/11/25 13:12:36;;;;;;;;;;;;;;;13.62;55.28;97212.97;4229575;28;5609;-68
2022/11/25 13:15:01;;;;;;;;;;;;;;;13.62;55.13;97216.47;4225831;28;5609;-68
2022/11/25 13:17:09;;;;;;;;;;;;;;;13.62;55.08;97216.47;4227684;28;6291;-68
2022/11/25 13:19:17;;;;;;;;;;;;;;;13.61;55.05;97214.00;4222574;28;5668;-68
2022/11/25 13:21:19;;;;;;;;;;;;;;;13.61;55.35;97219.31;4225664;28;5616;-68
2022/11/25 13:23:25;;;;;;;;;;;;;;;13.62;55.34;97218.28;4218777;28;5605;-67
2022/11/25 13:25:28;;;;;;;;;;;;;;;13.63;54.96;97217.28;4220654;28;5770;-67
2022/11/25 13:27:34;;;;;;;;;;;;;;;13.63;55.12;97222.59;4228954;28;5616;-67
2022/11/25 13:30:00;;;;;;;;;;;;;;;13.62;55.20;97223.59;4228901;28;5649;-68
2022/11/25 13:32:19;;;;;;;;;;;;;;;13.60;55.02;97218.50;4221921;28;5644;-68
2022/11/25 13:34:30;;;;;;;;;;;;;;;13.61;55.23;97219.31;4237385;28;5590;-68
2022/11/25 13:36:47;;;;;;;;;;;;;;;13.60;55.16;97223.00;4237507;28;5598;-68
2022/11/25 13:39:13;;;;;;;;;;;;;;;13.60;55.01;97228.31;4220609;28;5624;-68
2022/11/25 13:41:36;;;;;;;;;;;;;;;13.57;54.88;97223.38;4219860;28;5625;-68
2022/11/25 13:43:55;;;;;;;;;;;;;;;13.56;54.99;97224.41;4228848;28;5628;-68
2022/11/25 13:46:05;;;;;;;;;;;;;;;13.56;54.88;97221.75;4210753;28;5775;-68
2022/11/25 13:48:16;;;;;;;;;;;;;;;13.56;54.93;97227.06;4228484;28;5736;-67
2022/11/25 13:50:24;;;;;;;;;;;;;;;13.55;54.82;97225.41;4220434;28;5604;-68
2022/11/25 13:52:56;;;;;;;;;;;;;;;13.58;54.78;97219.69;4220099;28;5788;-68
2022/11/25 13:55:05;;;;;;;;;;;;;;;13.60;54.81;97229.13;4220535;28;5723;-68
2022/11/25 13:57:24;;;;;;;;;;;;;;;13.61;55.02;97224.63;4220005;28;5620;-68
2022/11/25 13:59:38;;;;;;;;;;;;;;;13.62;54.72;97226.25;4230100;27;5583;-68
2022/11/25 14:01:53;;;;;;;;;;;;;;;13.64;54.73;97232.19;4240153;27;5668;-69
2022/11/25 14:04:00;;;;;;;;;;;;;;;13.64;54.74;97234.84;4236708;27;5767;-67
2022/11/25 14:06:11;;;;;;;;;;;;;;;13.62;54.65;97243.03;4254183;27;5586;-68
2022/11/25 14:08:21;;;;;;;;;;;;;;;13.58;54.78;97238.28;4254120;27;5843;-67
2022/11/25 14:10:44;;;;;;;;;;;;;;;13.56;54.68;97243.81;4244881;27;5688;-67
2022/11/25 14:13:13;;;;;;;;;;;;;;;13.54;54.58;97239.72;4219764;28;5660;-67
2022/11/25 14:15:30;;;;;;;;;;;;;;;13.53;54.63;97238.91;4231856;28;5594;-67
2022/11/25 14:18:09;;;;;;;;;;;;;;;13.55;54.67;97238.69;4230944;28;5601;-67
2022/11/25 14:20:36;;;;;;;;;;;;;;;13.56;54.75;97243.81;4231187;28;5693;-67
2022/11/25 14:23:05;;;;;;;;;;;;;;;13.52;54.74;97247.06;4221455;28;5612;-68
2022/11/25 14:25:19;;;;;;;;;;;;;;;13.53;54.46;97248.72;4221714;28;5825;-67
2022/11/25 14:27:27;;;;;;;;;;;;;;;13.52;54.55;97253.22;4232477;28;5616;-67
2022/11/25 14:29:37;;;;;;;;;;;;;;;13.51;54.68;97245.44;4219223;28;5692;-68
2022/11/25 14:31:46;;;;;;;;;;;;;;;13.54;54.73;97245.03;4231910;27;5602;-68
2022/11/25 14:33:57;;;;;;;;;;;;;;;13.55;54.49;97251.97;4235248;28;5597;-67
2022/11/25 14:36:06;;;;;;;;;;;;;;;13.55;54.50;97246.66;4220603;28;5617;-68
2022/11/25 14:38:15;;;;;;;;;;;;;;;13.56;54.67;97250.97;4231012;28;5715;-68
2022/11/25 14:40:22;;;;;;;;;;;;;;;13.56;54.30;97254.44;4215860;28;5616;-68
2022/11/25 14:42:32;;;;;;;;;;;;;;;13.57;54.31;97265.88;4232417;28;5831;-68
2022/11/25 14:44:45;;;;;;;;;;;;;;;13.55;54.50;97257.28;4234033;28;5610;-68
2022/11/25 14:46:51;;;;;;;;;;;;;;;13.55;54.51;97262.59;4226367;28;5714;-68
2022/11/25 14:48:57;;;;;;;;;;;;;;;13.54;54.38;97268.94;4235322;28;5662;-67
2022/11/25 14:51:01;;;;;;;;;;;;;;;13.53;54.69;97262.00;4236446;28;5609;-68
2022/11/25 14:53:09;;;;;;;;;;;;;;;13.56;54.63;97269.56;4226094;28;5668;-67
2022/11/25 14:55:12;;;;;;;;;;;;;;;13.56;54.27;97275.69;4221043;28;5820;-68
2022/11/25 14:57:20;;;;;;;;;;;;;;;13.58;54.53;97275.47;4225478;27;5775;-68
2022/11/25 14:59:26;;;;;;;;;;;;;;;13.59;54.49;97285.09;4226452;27;5774;-68
2022/11/25 15:01:31;;;;;;;;;;;;;;;13.59;54.42;97287.75;4223673;27;5628;-68
2022/11/25 15:03:34;;;;;;;;;;;;;;;13.57;54.42;97285.28;4227931;27;5613;-68
2022/11/25 15:05:39;;;;;;;;;;;;;;;13.57;54.66;97287.94;4227507;27;5626;-68
2022/11/25 15:07:58;;;;;;;;;;;;;;;13.57;54.47;97293.25;4229842;27;5828;-66
2022/11/25 15:10:00;;;;;;;;;;;;;;;13.58;54.49;97299.38;4231549;27;6114;-68
2022/11/25 15:12:07;;;;;;;;;;;;;;;13.55;54.53;97294.47;4230621;27;5748;-68
2022/11/25 15:14:21;;;;;;;;;;;;;;;13.54;54.53;97304.28;4222839;27;5896;-68
2022/11/25 15:16:32;;;;;;;;;;;;;;;13.54;54.50;97304.28;4230031;27;5665;-68
2022/11/25 15:18:36;;;;;;;;;;;;;;;13.53;54.37;97307.16;4226878;27;5681;-68
2022/11/25 15:20:40;;;;;;;;;;;;;;;13.53;54.63;97301.84;4224953;27;6618;-68
2022/11/25 15:22:45;;;;;;;;;;;;;;;13.52;54.79;97306.34;4230376;28;5800;-68
2022/11/25 15:24:49;;;;;;;;;;;;;;;13.51;54.48;97309.19;4229423;27;5793;-68
2022/11/25 15:26:58;;;;;;;;;;;;;;;13.47;54.60;97305.28;4227577;27;5794;-68
2022/11/25 15:29:04;;;;;;;;;;;;;;;13.49;54.51;97313.88;4224424;27;5767;-65
2022/11/25 15:31:11;;;;;;;;;;;;;;;13.48;54.62;97314.88;4225750;27;5626;-66
2022/11/25 15:33:14;;;;;;;;;;;;;;;13.48;54.80;97326.34;4220270;27;5771;-67
2022/11/25 15:35:20;;;;;;;;;;;;;;;13.48;54.68;97325.50;4225571;27;5756;-67
2022/11/25 15:37:24;;;;;;;;;;;;;;;13.47;54.80;97330.00;4223543;27;6973;-67
2022/11/25 15:39:29;;;;;;;;;;;;;;;13.48;54.65;97325.50;4225834;27;5613;-67
2022/11/25 15:41:33;;;;;;;;;;;;;;;13.48;54.63;97325.50;4226631;27;5804;-67
2022/11/25 15:43:40;;;;;;;;;;;;;;;13.49;54.56;97337.78;4221042;27;5815;-67
2022/11/25 15:45:45;;;;;;;;;;;;;;;13.48;54.85;97336.97;4223087;27;5695;-67
2022/11/25 15:47:49;;;;;;;;;;;;;;;13.46;54.88;97338.16;4221889;27;5708;-66
2022/11/25 15:49:59;;;;;;;;;;;;;;;13.46;54.85;97349.59;4225087;27;5764;-67
2022/11/25 15:52:08;;;;;;;;;;;;;;;13.46;54.87;97354.09;4206232;28;5620;-67
2022/11/25 15:54:20;;;;;;;;;;;;;;;13.45;54.64;97349.81;4221819;27;5624;-67
2022/11/25 15:56:26;;;;;;;;;;;;;;;13.45;54.90;97361.25;4223934;27;5653;-69
2022/11/25 15:58:29;;;;;;;;;;;;;;;13.44;54.65;97366.75;4221537;27;5743;-68
2022/11/25 16:00:32;;;;;;;;;;;;;;;13.44;54.93;97364.09;4223441;27;5760;-67
2022/11/25 16:02:38;;;;;;;;;;;;;;;13.45;54.93;97365.75;4225303;28;5590;-67
2022/11/25 16:04:41;;;;;;;;;;;;;;;13.45;54.70;97368.41;4224279;27;6485;-67
2022/11/25 16:06:54;;;;;;;;;;;;;;;13.46;54.78;97370.03;4225506;27;5673;-67
2022/11/25 16:08:58;;;;;;;;;;;;;;;13.46;54.76;97362.88;4224526;28;5707;-67
2022/11/25 16:11:18;;;;;;;;;;;;;;;13.47;54.71;97374.34;4224636;27;5704;-67
2022/11/25 16:13:35;;;;;;;;;;;;;;;13.48;54.96;97382.13;4222596;27;5681;-69
2022/11/25 16:15:44;;;;;;;;;;;;;;;13.49;54.77;97377.63;4221392;27;5723;-70
2022/11/25 16:17:47;;;;;;;;;;;;;;;13.50;54.85;97381.94;4219797;27;6007;-71
2022/11/25 16:19:50;;;;;;;;;;;;;;;13.51;54.82;97375.59;4228855;27;5736;-70
2022/11/25 16:22:00;;;;;;;;;;;;;;;13.51;54.90;97388.88;4222705;27;5840;-66
2022/11/25 16:24:16;;;;;;;;;;;;;;;13.50;54.81;97390.72;4223693;27;5739;-67
2022/11/25 16:26:25;;;;;;;;;;;;;;;13.50;54.86;97397.88;4223477;27;5606;-66
2022/11/25 16:28:28;;;;;;;;;;;;;;;13.49;55.10;97402.34;4223171;27;5605;-70
2022/11/25 16:30:36;;;;;;;;;;;;;;;13.50;55.12;97408.50;4225973;27;5624;-70
2022/11/25 16:32:39;;;;;;;;;;;;;;;13.50;55.13;97408.50;4220698;27;5613;-70
2022/11/25 16:34:42;;;;;;;;;;;;;;;13.49;54.91;97412.16;4226208;27;5692;-74